Terminal Aerodrome Forecast
Issued by NWS

Home | Current Version | Previous Version | Text Only | Print | Product List | Glossary On
Versions: 1 2 3 4 5 6 7 8 9 10 11 12 13 14 15 16 17 18 19 20 21 22 23 24 25 26 27 28 29 30 31 32 33 34 35 36 37 38 39 40 41 42 43 44 45 46 47 48
000
FTUS41 KALY 192016 AAA
TAFPSF
TAF AMD
KPSF 192016Z 1920/2018 29016G30KT P6SM BKN030 OVC035
     FM192200 28014G25KT P6SM BKN020 BKN035
     FM200400 27012G20KT P6SM VCSH OVC035 PROB30 2005/2010 2SM -SHSN
      BR BKN020 OVC030
     FM201400 28014G28KT P6SM VCSH BKN040=

USA.gov is the U.S. government's official web portal to all federal, state and local government web resources and services.